Time;durP1;ratioP1;P1;durP2;ratioP2;P2;SDS_P1;SDS_P2;PMS_P1;PMS_P2;Temp;Humidity;BMP_temperature;BMP_pressure;BME280_temperature;BME280_humidity;BME280_pressure;Samples;Min_cycle;Max_cycle;Signal;HPM_P1;HPM_P2
2021/02/23 00:01:03;;;;;;;3.2;1.6;;;;;;;5.12;59.48438;950.5919;;;;
2021/02/23 00:03:28;;;;;;;6.7;1.4;;;;;;;5.06;59.20605;950.6102;;;;
2021/02/23 00:05:53;;;;;;;4;1.7;;;;;;;5.13;59.50879;950.6675;;;;
2021/02/23 00:08:18;;;;;;;3.6;1.6;;;;;;;5.22;59.48633;950.6664;;;;
2021/02/23 00:10:50;;;;;;;3.2;1.4;;;;;;;5.27;59.37988;950.6609;;;;
2021/02/23 00:13:15;;;;;;;7.9;1.7;;;;;;;5.13;59.68945;950.7353;;;;
2021/02/23 00:15:49;;;;;;;2;1.3;;;;;;;5.13;59.7334;950.7935;;;;
2021/02/23 00:18:14;;;;;;;3.8;1.8;;;;;;;5.14;59.72461;950.7896;;;;
2021/02/23 00:20:43;;;;;;;5.9;1.5;;;;;;;5.25;59.26465;950.87;;;;
2021/02/23 00:23:13;;;;;;;2.7;1.4;;;;;;;4.88;60.38672;950.8248;;;;
2021/02/23 00:25:46;;;;;;;6.3;2;;;;;;;4.88;60.44336;950.8053;;;;
2021/02/23 00:28:14;;;;;;;2.7;1.4;;;;;;;5.02;59.54883;950.7961;;;;
2021/02/23 00:30:42;;;;;;;3;1.4;;;;;;;5.12;59.30371;950.8789;;;;
2021/02/23 00:33:12;;;;;;;2.6;1.4;;;;;;;5.09;59.24316;950.873;;;;
2021/02/23 00:35:38;;;;;;;5.5;1.6;;;;;;;5.14;58.83301;950.8818;;;;
2021/02/23 00:38:07;;;;;;;2;1.1;;;;;;;5.07;59.36523;950.9192;;;;
2021/02/23 00:40:32;;;;;;;2.5;1.5;;;;;;;5.02;59.61816;950.9659;;;;
2021/02/23 00:42:57;;;;;;;5.6;1.4;;;;;;;5.01;59.24316;950.9288;;;;
2021/02/23 00:45:26;;;;;;;3.1;1.4;;;;;;;5.26;56.83105;951.0492;;;;
2021/02/23 00:47:51;;;;;;;5.2;1.3;;;;;;;5.17;58.06055;950.9752;;;;
2021/02/23 00:50:19;;;;;;;2.1;1.1;;;;;;;5.29;56.60938;951.0081;;;;
2021/02/23 00:52:44;;;;;;;1.5;0.9;;;;;;;5.64;53.11133;951.0076;;;;
2021/02/23 00:55:09;;;;;;;5.2;1.5;;;;;;;5.97;54.9834;951.0714;;;;
2021/02/23 00:57:34;;;;;;;3.8;1.5;;;;;;;5.93;54.0625;951.0109;;;;
2021/02/23 01:00:02;;;;;;;2.3;1.4;;;;;;;5.92;56.09473;951.043;;;;
2021/02/23 01:02:27;;;;;;;1.7;1.3;;;;;;;5.56;57.93262;950.9957;;;;
2021/02/23 01:04:52;;;;;;;6.4;1.8;;;;;;;5.44;57.84863;951.131;;;;
2021/02/23 01:07:18;;;;;;;2.5;1.4;;;;;;;5.52;56.71973;951.1138;;;;
2021/02/23 01:09:45;;;;;;;4.4;1.3;;;;;;;5.66;56.6582;951.0535;;;;
2021/02/23 01:12:11;;;;;;;1.9;1.3;;;;;;;5.65;57.49219;951.065;;;;
2021/02/23 01:14:36;;;;;;;7.2;2;;;;;;;5.16;60.18945;951.1633;;;;
2021/02/23 01:17:05;;;;;;;2.6;1.6;;;;;;;5.03;58.81934;951.0988;;;;
2021/02/23 01:19:34;;;;;;;5.4;1.3;;;;;;;5.34;57.21289;951.1708;;;;
2021/02/23 01:21:59;;;;;;;2;1.2;;;;;;;5.33;58.83789;951.1611;;;;
2021/02/23 01:24:28;;;;;;;3;1.8;;;;;;;5.26;59.86523;951.2224;;;;
2021/02/23 01:26:53;;;;;;;4.4;1.9;;;;;;;5.12;59.9707;951.2307;;;;
2021/02/23 01:29:18;;;;;;;3.8;1.9;;;;;;;5.01;60.22461;951.2146;;;;
2021/02/23 01:31:43;;;;;;;17.7;2.1;;;;;;;4.96;60.55469;951.301;;;;
2021/02/23 01:34:11;;;;;;;2.5;1.4;;;;;;;4.92;60.65234;951.2581;;;;
2021/02/23 01:36:36;;;;;;;3.8;1.9;;;;;;;4.79;61.4668;951.3101;;;;
2021/02/23 01:39:05;;;;;;;2.2;1.3;;;;;;;4.66;61.85449;951.3091;;;;
2021/02/23 01:41:32;;;;;;;3.2;1.4;;;;;;;4.57;62.12207;951.2983;;;;
2021/02/23 01:43:57;;;;;;;11.2;1.6;;;;;;;4.54;62.19629;951.221;;;;
2021/02/23 01:46:22;;;;;;;3.2;1.7;;;;;;;4.57;62.05469;951.3214;;;;
2021/02/23 01:48:49;;;;;;;3;1.5;;;;;;;4.55;62.5127;951.347;;;;
2021/02/23 01:51:20;;;;;;;2.8;1.3;;;;;;;4.6;62.37402;951.3687;;;;
2021/02/23 01:53:48;;;;;;;1.7;1.3;;;;;;;4.56;62.32227;951.3173;;;;
2021/02/23 01:56:13;;;;;;;3.2;1.5;;;;;;;4.53;62.36328;951.41;;;;
2021/02/23 01:58:42;;;;;;;3.4;1.8;;;;;;;4.55;61.45508;951.4316;;;;
2021/02/23 02:01:08;;;;;;;2;1.1;;;;;;;4.61;61.1582;951.4741;;;;
2021/02/23 02:03:33;;;;;;;4.5;1.7;;;;;;;4.82;60.02832;951.4609;;;;
2021/02/23 02:06:02;;;;;;;1.5;1;;;;;;;4.86;60.69922;951.4697;;;;
2021/02/23 02:08:27;;;;;;;4.5;1.4;;;;;;;5;56.74023;951.4948;;;;
2021/02/23 02:10:52;;;;;;;3.9;1.5;;;;;;;5.29;56.85742;951.5496;;;;
2021/02/23 02:13:21;;;;;;;6.1;1.6;;;;;;;5.5;56.77344;951.5347;;;;
2021/02/23 02:15:49;;;;;;;2.6;1.3;;;;;;;5.58;56.8623;951.468;;;;
2021/02/23 02:18:18;;;;;;;2;1.2;;;;;;;5.4;58.58789;951.5972;;;;
2021/02/23 02:20:47;;;;;;;4;1.1;;;;;;;5.32;58.99414;951.6572;;;;
2021/02/23 02:23:18;;;;;;;3.5;1.3;;;;;;;5.15;59.06055;951.5954;;;;
2021/02/23 02:25:46;;;;;;;1.8;1.5;;;;;;;5.15;59.41113;951.6279;;;;
2021/02/23 02:28:14;;;;;;;4.6;1.2;;;;;;;5.17;59.40234;951.6716;;;;
2021/02/23 02:30:39;;;;;;;1.2;0.8;;;;;;;5.06;59.84863;951.6611;;;;
2021/02/23 02:33:08;;;;;;;3.9;1.4;;;;;;;4.95;61.20801;951.6194;;;;
2021/02/23 02:35:33;;;;;;;2.4;1.4;;;;;;;4.88;61.72754;951.7151;;;;
2021/02/23 02:37:58;;;;;;;8.5;1.9;;;;;;;4.72;62.30273;951.7399;;;;
2021/02/23 02:40:27;;;;;;;1.4;1.1;;;;;;;4.67;62.47363;951.7818;;;;
2021/02/23 02:42:52;;;;;;;3.5;1.4;;;;;;;4.64;61.98535;951.777;;;;
2021/02/23 02:45:17;;;;;;;3.1;1.4;;;;;;;4.71;61.40039;951.7567;;;;
2021/02/23 02:47:42;;;;;;;1.8;1.2;;;;;;;4.78;61.22852;951.8038;;;;
2021/02/23 02:50:10;;;;;;;2.9;1.3;;;;;;;4.78;61.18262;951.9266;;;;
2021/02/23 02:52:35;;;;;;;5;1.5;;;;;;;4.69;61.75684;951.8438;;;;
2021/02/23 02:55:04;;;;;;;2.7;1.4;;;;;;;4.62;61.95996;951.934;;;;
2021/02/23 02:57:29;;;;;;;2.1;1.4;;;;;;;4.77;60.71973;951.8967;;;;
2021/02/23 02:59:54;;;;;;;1.9;1.1;;;;;;;4.85;60.78809;951.895;;;;
2021/02/23 03:02:19;;;;;;;8.6;2;;;;;;;4.9;60.41309;951.9042;;;;
2021/02/23 03:04:48;;;;;;;7.4;1.8;;;;;;;4.91;60.55957;951.8516;;;;
2021/02/23 03:07:14;;;;;;;3.5;1.5;;;;;;;4.82;60.72754;951.9866;;;;
2021/02/23 03:09:39;;;;;;;2.2;1.2;;;;;;;4.84;60.31445;952.0472;;;;
2021/02/23 03:12:04;;;;;;;6.4;2.3;;;;;;;4.81;60.89453;952.028;;;;
2021/02/23 03:14:34;;;;;;;2.1;1.3;;;;;;;4.74;61.72949;952.1501;;;;
2021/02/23 03:17:04;;;;;;;2.3;1.3;;;;;;;4.43;63.44043;952.1939;;;;
2021/02/23 03:19:33;;;;;;;2.6;1.2;;;;;;;4.12;65.03613;952.2225;;;;
2021/02/23 03:21:58;;;;;;;3.6;2.2;;;;;;;4.01;65.57227;952.2773;;;;
2021/02/23 03:24:26;;;;;;;3.7;2.1;;;;;;;3.9;66.01465;952.284;;;;
2021/02/23 03:26:51;;;;;;;1.5;1.1;;;;;;;3.79;66.4375;952.3431;;;;
2021/02/23 03:29:16;;;;;;;4.2;1.1;;;;;;;3.81;66.35059;952.3541;;;;
2021/02/23 03:31:46;;;;;;;3.3;2;;;;;;;3.93;65.88574;952.3522;;;;
2021/02/23 03:34:11;;;;;;;3.7;1.8;;;;;;;3.8;66.39258;952.4175;;;;
2021/02/23 03:36:38;;;;;;;3.3;1.7;;;;;;;3.67;66.51953;952.426;;;;
2021/02/23 03:39:03;;;;;;;2.7;1.3;;;;;;;3.72;66.23535;952.4651;;;;
2021/02/23 03:41:31;;;;;;;5.6;1.7;;;;;;;3.76;66.09473;952.5215;;;;
2021/02/23 03:43:56;;;;;;;2.6;1.3;;;;;;;3.78;65.94043;952.5678;;;;
2021/02/23 03:46:23;;;;;;;2.8;1.6;;;;;;;3.63;66.51172;952.5644;;;;
2021/02/23 03:48:48;;;;;;;1.7;1.3;;;;;;;3.59;66.61914;952.6011;;;;
2021/02/23 03:51:15;;;;;;;4.6;2.3;;;;;;;3.64;66.4248;952.6141;;;;
2021/02/23 03:53:40;;;;;;;1.9;1.5;;;;;;;3.86;65.11035;952.6199;;;;
2021/02/23 03:56:06;;;;;;;1.7;1.2;;;;;;;4.07;63.99609;952.6544;;;;
2021/02/23 03:58:31;;;;;;;1.3;1.1;;;;;;;4.32;61.4668;952.5709;;;;
2021/02/23 04:02:30;;;;;;;1.9;1.4;;;;;;;4.34;63.13477;952.6147;;;;
2021/02/23 04:04:55;;;;;;;6.5;1.5;;;;;;;4.28;63.99219;952.652;;;;
2021/02/23 04:07:21;;;;;;;3.4;1.5;;;;;;;4.14;64.74805;952.7189;;;;
2021/02/23 04:09:46;;;;;;;4.5;1.6;;;;;;;4.03;65.51953;952.8035;;;;
2021/02/23 04:12:14;;;;;;;4.7;2.1;;;;;;;3.81;65.97852;952.8013;;;;
2021/02/23 04:14:39;;;;;;;4.8;1.9;;;;;;;3.72;66.14453;952.7389;;;;
2021/02/23 04:17:04;;;;;;;3;1.3;;;;;;;3.75;66.09473;952.7772;;;;
2021/02/23 04:19:31;;;;;;;4.9;1.5;;;;;;;3.66;66.53906;952.7889;;;;
2021/02/23 04:21:56;;;;;;;3.8;1.5;;;;;;;3.52;67.05664;952.7623;;;;
2021/02/23 04:24:24;;;;;;;8.8;2;;;;;;;3.35;67.99512;952.7715;;;;
2021/02/23 04:26:49;;;;;;;6;1.9;;;;;;;3.25;68.31641;952.802;;;;
2021/02/23 04:29:15;;;;;;;4.8;2.1;;;;;;;3.23;68.65039;952.8613;;;;
2021/02/23 04:31:40;;;;;;;5.9;1.8;;;;;;;3.19;68.85742;952.8761;;;;
2021/02/23 04:34:06;;;;;;;8.1;2.8;;;;;;;3.21;68.71484;952.8557;;;;
2021/02/23 04:36:32;;;;;;;6.3;2.1;;;;;;;3.28;68.38965;952.9512;;;;
2021/02/23 04:38:57;;;;;;;8.5;2.8;;;;;;;3.29;68.12305;952.892;;;;
2021/02/23 04:41:24;;;;;;;14;2.8;;;;;;;3.25;68.11426;952.9556;;;;
2021/02/23 04:43:50;;;;;;;4.5;2.2;;;;;;;3.21;68.45605;952.9686;;;;
2021/02/23 04:46:16;;;;;;;3.8;2;;;;;;;3.21;68.70313;952.8987;;;;
2021/02/23 04:48:41;;;;;;;5.1;2;;;;;;;3.2;68.66797;952.9472;;;;
2021/02/23 04:51:07;;;;;;;8.3;2.8;;;;;;;3.27;68.34277;953.0977;;;;
2021/02/23 04:53:32;;;;;;;8;3.3;;;;;;;3.29;68.0332;953.1108;;;;
2021/02/23 04:55:59;;;;;;;6.4;2.8;;;;;;;3.29;68.04395;953.0463;;;;
2021/02/23 04:58:24;;;;;;;9.6;3.4;;;;;;;3.28;68.05078;953.1555;;;;
2021/02/23 05:00:52;;;;;;;2.4;2;;;;;;;3.4;67.58887;953.155;;;;
2021/02/23 05:03:15;;;;;;;8.1;2.5;;;;;;;3.45;67.58594;953.2094;;;;
2021/02/23 05:05:41;;;;;;;7.1;2.5;;;;;;;3.44;67.41504;953.2394;;;;
2021/02/23 05:08:06;;;;;;;4.3;2.3;;;;;;;3.57;66.55957;953.2866;;;;
2021/02/23 05:10:31;;;;;;;10.8;3;;;;;;;3.64;66.06543;953.2095;;;;
2021/02/23 05:12:56;;;;;;;3.3;2.1;;;;;;;3.85;65.00586;953.254;;;;
2021/02/23 05:15:30;;;;;;;8.5;2.7;;;;;;;3.85;65.44434;953.265;;;;
2021/02/23 05:17:57;;;;;;;6.2;2.6;;;;;;;3.85;65.52441;953.2764;;;;
2021/02/23 05:20:22;;;;;;;7.5;2.3;;;;;;;3.76;65.57813;953.274;;;;
2021/02/23 05:22:49;;;;;;;20.3;2.4;;;;;;;3.75;65.83496;953.364;;;;
2021/02/23 05:25:18;;;;;;;4.5;2;;;;;;;3.69;66.00488;953.2853;;;;
2021/02/23 05:27:44;;;;;;;3.4;1.9;;;;;;;3.84;65.60156;953.3246;;;;
2021/02/23 05:30:09;;;;;;;8.7;2.6;;;;;;;3.91;65.32031;953.3067;;;;
2021/02/23 05:32:35;;;;;;;6.7;2.5;;;;;;;3.74;66.01367;953.3192;;;;
2021/02/23 05:35:00;;;;;;;4.8;2.7;;;;;;;3.56;67.15234;953.252;;;;
2021/02/23 05:37:26;;;;;;;10.7;3.4;;;;;;;3.44;67.97656;953.2772;;;;
2021/02/23 05:39:51;;;;;;;8.1;3;;;;;;;3.31;68.60742;953.3552;;;;
2021/02/23 05:42:18;;;;;;;8.5;3;;;;;;;3.22;68.8623;953.4044;;;;
2021/02/23 05:44:43;;;;;;;9.4;3.8;;;;;;;3.12;68.89063;953.3707;;;;
2021/02/23 05:47:08;;;;;;;6.5;3.2;;;;;;;3.1;68.97754;953.3689;;;;
2021/02/23 05:49:36;;;;;;;8.7;3.6;;;;;;;3.2;68.74707;953.4503;;;;
2021/02/23 05:52:01;;;;;;;6;2.9;;;;;;;3.08;69.23242;953.428;;;;
2021/02/23 05:54:29;;;;;;;17.7;3.9;;;;;;;3;69.3877;953.5008;;;;
2021/02/23 05:56:54;;;;;;;15.4;3.4;;;;;;;2.94;69.66895;953.5436;;;;
2021/02/23 05:59:20;;;;;;;5.8;2.8;;;;;;;2.99;69.52051;953.5011;;;;
2021/02/23 06:01:45;;;;;;;14;3.2;;;;;;;2.89;70.11035;953.562;;;;
2021/02/23 06:04:10;;;;;;;13.4;3.4;;;;;;;2.94;70.10645;953.5278;;;;
2021/02/23 06:06:35;;;;;;;8.1;1.6;;;;;;;2.97;69.90918;953.4372;;;;
2021/02/23 06:09:00;;;;;;;11.2;2.2;;;;;;;3.03;69.69531;953.503;;;;
2021/02/23 06:11:26;;;;;;;12.8;2.5;;;;;;;3.05;69.7207;953.5159;;;;
2021/02/23 06:13:52;;;;;;;8.3;2.9;;;;;;;3.13;69.49805;953.5225;;;;
2021/02/23 06:16:18;;;;;;;8.3;3;;;;;;;3.05;69.86621;953.5593;;;;
2021/02/23 06:18:46;;;;;;;6.9;2.3;;;;;;;2.98;70.37207;953.6672;;;;
2021/02/23 06:21:11;;;;;;;12.3;2.4;;;;;;;3.19;70.8457;953.587;;;;
2021/02/23 06:23:38;;;;;;;6.7;2.9;;;;;;;3.38;69.74023;953.5566;;;;
2021/02/23 06:26:03;;;;;;;4.5;2.1;;;;;;;3.58;68.68457;953.6016;;;;
2021/02/23 06:28:28;;;;;;;6.3;2.5;;;;;;;3.77;67.66992;953.5496;;;;
2021/02/23 06:30:53;;;;;;;8.2;2.7;;;;;;;3.84;67.4668;953.5701;;;;
2021/02/23 06:33:19;;;;;;;5.2;2.5;;;;;;;3.95;67.15918;953.6526;;;;
2021/02/23 06:35:44;;;;;;;13.8;3.4;;;;;;;4.1;66.42969;953.6547;;;;
2021/02/23 06:38:09;;;;;;;8.8;3.6;;;;;;;3.97;66.30859;953.688;;;;
2021/02/23 06:40:34;;;;;;;12.7;3.8;;;;;;;3.92;66.6709;953.665;;;;
2021/02/23 06:43:00;;;;;;;8.2;3.6;;;;;;;4.05;66.44531;953.7346;;;;
2021/02/23 06:45:25;;;;;;;6.1;2.9;;;;;;;4.06;66.1748;953.6989;;;;
2021/02/23 06:47:50;;;;;;;8.3;3.5;;;;;;;4.18;66.28418;953.6995;;;;
2021/02/23 06:50:16;;;;;;;5;2.7;;;;;;;4.32;65.77637;953.7111;;;;
2021/02/23 06:52:41;;;;;;;4.4;2.5;;;;;;;4.28;65.46582;953.7037;;;;
2021/02/23 06:55:06;;;;;;;9.8;2.6;;;;;;;4.48;65.29492;953.8081;;;;
2021/02/23 06:57:32;;;;;;;4.4;2.6;;;;;;;4.76;63.90723;953.8582;;;;
2021/02/23 06:59:57;;;;;;;8.1;3;;;;;;;4.95;62.82031;953.8834;;;;
2021/02/23 07:02:23;;;;;;;7.3;2.5;;;;;;;5.14;62.41992;953.8214;;;;
2021/02/23 07:04:48;;;;;;;6.7;2.4;;;;;;;5.24;61.91504;953.8842;;;;
2021/02/23 07:07:13;;;;;;;10.4;3.2;;;;;;;5.4;61.4873;953.9978;;;;
2021/02/23 07:09:39;;;;;;;12.1;3.3;;;;;;;5.55;60.99902;954.0027;;;;
2021/02/23 07:12:04;;;;;;;9.6;3.2;;;;;;;5.7;60.23242;953.9994;;;;
2021/02/23 07:14:30;;;;;;;15.4;3.6;;;;;;;5.74;60.22754;954.0467;;;;
2021/02/23 07:16:55;;;;;;;13;3.6;;;;;;;5.86;59.2041;954.0958;;;;
2021/02/23 07:19:20;;;;;;;5.2;2.5;;;;;;;6.12;58.38086;954.0804;;;;
2021/02/23 07:21:45;;;;;;;8.5;3.2;;;;;;;6.51;57.7334;954.0696;;;;
2021/02/23 07:24:11;;;;;;;6.4;2.5;;;;;;;6.84;56.93945;954.0588;;;;
2021/02/23 07:26:36;;;;;;;7.8;2.5;;;;;;;7.23;55.67773;954.0988;;;;
2021/02/23 07:29:01;;;;;;;5.7;2.7;;;;;;;7.37;55.36719;954.1559;;;;
2021/02/23 07:31:26;;;;;;;6.4;2.8;;;;;;;7.45;55.04883;954.1305;;;;
2021/02/23 07:33:54;;;;;;;8.2;1.9;;;;;;;7.64;51.14746;954.1158;;;;
2021/02/23 07:36:20;;;;;;;10.9;3;;;;;;;8.02;49.59277;954.0987;;;;
2021/02/23 07:38:45;;;;;;;2.6;1.6;;;;;;;8.41;49.30859;954.1535;;;;
2021/02/23 07:41:10;;;;;;;3.2;1.6;;;;;;;8.89;46.89453;954.119;;;;
2021/02/23 07:43:35;;;;;;;5.4;2.3;;;;;;;9.14;46.08008;954.1534;;;;
2021/02/23 07:46:01;;;;;;;8.2;2.1;;;;;;;9.34;46.34082;954.188;;;;
2021/02/23 07:48:26;;;;;;;11.4;3;;;;;;;9.94;45.48145;954.2101;;;;
2021/02/23 07:50:51;;;;;;;8.5;2.2;;;;;;;10.51;44.34277;954.1605;;;;
2021/02/23 07:53:17;;;;;;;5.7;2;;;;;;;10.73;42.50488;954.1638;;;;
2021/02/23 07:55:41;;;;;;;6.6;2.2;;;;;;;10.97;41.23535;954.1131;;;;
2021/02/23 07:58:07;;;;;;;2.8;1.6;;;;;;;11.12;40.62109;954.085;;;;
2021/02/23 08:00:32;;;;;;;3.1;1.9;;;;;;;11.12;39.96973;954.1702;;;;
2021/02/23 08:02:59;;;;;;;2.5;1.2;;;;;;;11.16;40.00781;954.1213;;;;
2021/02/23 08:05:25;;;;;;;7.6;1.2;;;;;;;12.28;38.07129;954.048;;;;
2021/02/23 08:07:50;;;;;;;7.4;2.1;;;;;;;12.15;37.68164;954.0712;;;;
2021/02/23 08:10:15;;;;;;;8.4;1.9;;;;;;;12.81;37.01465;954.0606;;;;
2021/02/23 08:12:40;;;;;;;5.8;1.7;;;;;;;13.68;36.57227;954.0062;;;;
2021/02/23 08:15:05;;;;;;;2.5;1.3;;;;;;;14;36.10352;953.9422;;;;
2021/02/23 08:17:31;;;;;;;2.3;1.2;;;;;;;15.13;33.3584;953.99;;;;
2021/02/23 08:19:56;;;;;;;6.5;1.1;;;;;;;15.46;32.51758;953.9736;;;;
2021/02/23 08:22:21;;;;;;;6.8;1.8;;;;;;;15.62;31.53613;953.9688;;;;
2021/02/23 08:24:46;;;;;;;5.3;2.5;;;;;;;16.14;31.08789;953.9719;;;;
2021/02/23 08:27:11;;;;;;;16.7;2.7;;;;;;;16.93;31.04004;953.981;;;;
2021/02/23 08:29:36;;;;;;;4.8;1.9;;;;;;;17.1;30.83105;953.9749;;;;
2021/02/23 08:32:01;;;;;;;2.4;1.6;;;;;;;16.93;31.02832;954.0164;;;;
2021/02/23 08:34:26;;;;;;;6.9;2.4;;;;;;;17.53;30.74609;954.0308;;;;
2021/02/23 08:36:51;;;;;;;16;3.1;;;;;;;18.02;30.00195;954.0387;;;;
2021/02/23 08:39:16;;;;;;;16.1;2.7;;;;;;;18.29;29.74121;953.9679;;;;
2021/02/23 08:41:42;;;;;;;17.1;3.1;;;;;;;17.17;31.12695;954.0062;;;;
2021/02/23 08:44:07;;;;;;;6.9;2.4;;;;;;;17.71;30.25977;953.8411;;;;
2021/02/23 08:46:34;;;;;;;5.9;2.3;;;;;;;18.08;28.33301;953.9431;;;;
2021/02/23 08:49:00;;;;;;;8.4;2.4;;;;;;;17.34;30.02441;953.9162;;;;
2021/02/23 08:51:24;;;;;;;2.5;1.5;;;;;;;17.81;29.79004;953.9013;;;;
2021/02/23 08:53:50;;;;;;;3.1;1.6;;;;;;;17.01;30.36133;953.8948;;;;
2021/02/23 08:56:15;;;;;;;10.7;1.7;;;;;;;16.57;30.64355;953.829;;;;
2021/02/23 08:58:40;;;;;;;2.6;1.5;;;;;;;17.18;30.07227;953.8412;;;;
2021/02/23 09:01:06;;;;;;;6.2;2.3;;;;;;;17.77;29.22949;953.9052;;;;
2021/02/23 09:03:31;;;;;;;3.7;1.4;;;;;;;18.07;28.44922;953.8906;;;;
2021/02/23 09:05:56;;;;;;;3.2;1.1;;;;;;;18.64;27.81055;953.8258;;;;
2021/02/23 09:08:21;;;;;;;9.9;2.2;;;;;;;19.32;27.07324;953.8337;;;;
2021/02/23 09:10:46;;;;;;;4.2;2.1;;;;;;;19.65;26.27734;953.8362;;;;
2021/02/23 09:13:11;;;;;;;3.7;1.8;;;;;;;19.78;26.44824;953.8733;;;;
2021/02/23 09:15:42;;;;;;;7.9;3;;;;;;;20.32;25.82617;953.8568;;;;
2021/02/23 09:18:07;;;;;;;2.5;1.4;;;;;;;20.96;24.8584;953.8178;;;;
2021/02/23 09:20:34;;;;;;;18;2.2;;;;;;;21.51;24.22266;953.8873;;;;
2021/02/23 09:22:59;;;;;;;4.6;2.3;;;;;;;20.28;24.72754;953.8003;;;;
2021/02/23 09:25:24;;;;;;;11;1.9;;;;;;;19.1;26.02344;953.8452;;;;
2021/02/23 09:27:50;;;;;;;5.1;1.8;;;;;;;19.22;26.64746;953.8215;;;;
2021/02/23 09:30:15;;;;;;;8.2;2.1;;;;;;;19.75;25.5957;953.8013;;;;
2021/02/23 09:32:40;;;;;;;3.5;1.1;;;;;;;20.43;25.41309;953.7397;;;;
2021/02/23 09:35:05;;;;;;;4.6;1.5;;;;;;;20.18;25.03613;953.6571;;;;
2021/02/23 09:37:31;;;;;;;3.3;1.7;;;;;;;20.98;25.15234;953.6946;;;;
2021/02/23 09:39:55;;;;;;;4.4;1.4;;;;;;;21.95;24.11816;953.7146;;;;
2021/02/23 09:42:21;;;;;;;3.9;1.5;;;;;;;21.63;23.4209;953.7238;;;;
2021/02/23 09:44:47;;;;;;;10.6;2.7;;;;;;;20.27;24.37598;953.7518;;;;
2021/02/23 09:47:12;;;;;;;5;2.1;;;;;;;19.77;24.61719;953.7447;;;;
2021/02/23 09:49:37;;;;;;;9.4;2.5;;;;;;;19.37;25.28223;953.8215;;;;
2021/02/23 09:52:02;;;;;;;1.7;1.4;;;;;;;19.52;25.4541;953.7612;;;;
2021/02/23 09:54:27;;;;;;;6.1;2;;;;;;;19.72;25.20898;953.7399;;;;
2021/02/23 09:56:52;;;;;;;12.8;2.8;;;;;;;20.19;24.58203;953.7768;;;;
2021/02/23 09:59:19;;;;;;;1.6;1;;;;;;;20.49;24.85547;953.8098;;;;
2021/02/23 10:01:43;;;;;;;4.9;1.9;;;;;;;20.91;24.83301;953.7671;;;;
2021/02/23 10:04:08;;;;;;;5.2;1.6;;;;;;;21.65;24.51172;953.7301;;;;
2021/02/23 10:06:33;;;;;;;7.5;2.7;;;;;;;21.85;23.53809;953.7115;;;;
2021/02/23 10:08:59;;;;;;;8.6;2.3;;;;;;;21;24.22949;953.7059;;;;
2021/02/23 10:11:23;;;;;;;10.8;2.6;;;;;;;21.35;24.13184;953.7068;;;;
2021/02/23 10:13:50;;;;;;;12;2.1;;;;;;;20.05;25.08789;953.6599;;;;
2021/02/23 10:16:15;;;;;;;8.3;2.4;;;;;;;20.45;25.16797;953.6685;;;;
2021/02/23 10:18:42;;;;;;;4.5;1;;;;;;;20.46;25.14551;953.6862;;;;
2021/02/23 10:21:07;;;;;;;2.1;1;;;;;;;20.69;25.08887;953.6741;;;;
2021/02/23 10:23:32;;;;;;;4;2.2;;;;;;;20.09;24.48242;953.6372;;;;
2021/02/23 10:25:58;;;;;;;7.7;2.3;;;;;;;19.86;25.04199;953.6333;;;;
2021/02/23 10:28:23;;;;;;;6.2;1.9;;;;;;;20.07;24.2832;953.6574;;;;
2021/02/23 10:30:48;;;;;;;9.5;2.2;;;;;;;20.43;24.62988;953.6523;;;;
2021/02/23 10:33:14;;;;;;;8.2;1.5;;;;;;;20.8;23.49414;953.6379;;;;
2021/02/23 10:35:39;;;;;;;6;2;;;;;;;20.95;23.53711;953.6114;;;;
2021/02/23 10:38:05;;;;;;;5.9;1.7;;;;;;;21.15;23.67676;953.5618;;;;
2021/02/23 10:40:30;;;;;;;6.6;1.8;;;;;;;21.48;22.63965;953.5513;;;;
2021/02/23 10:42:57;;;;;;;6.8;2.1;;;;;;;21.53;22.56055;953.4706;;;;
2021/02/23 10:45:22;;;;;;;6;2.1;;;;;;;22.23;22.38477;953.4846;;;;
2021/02/23 10:47:48;;;;;;;3.4;1.7;;;;;;;22.69;22.10352;953.4528;;;;
2021/02/23 10:50:14;;;;;;;7.9;2.3;;;;;;;23.22;21.36621;953.507;;;;
2021/02/23 10:52:40;;;;;;;7;2.8;;;;;;;22.64;21.14941;953.4908;;;;
2021/02/23 10:55:05;;;;;;;12.2;2.3;;;;;;;22.37;22.42773;953.4863;;;;
2021/02/23 10:57:31;;;;;;;3.7;1.5;;;;;;;22.68;22.16113;953.4489;;;;
2021/02/23 10:59:56;;;;;;;5.8;1.9;;;;;;;22.16;21.79492;953.3934;;;;
2021/02/23 11:02:21;;;;;;;5.7;1.3;;;;;;;22.35;21.99316;953.3599;;;;
2021/02/23 11:04:47;;;;;;;3.5;2;;;;;;;22.66;20.76367;953.3434;;;;
2021/02/23 11:07:12;;;;;;;5.5;1.7;;;;;;;22.99;20.46191;953.3583;;;;
2021/02/23 11:09:37;;;;;;;2.8;1.5;;;;;;;23.46;19.87207;953.3624;;;;
2021/02/23 11:12:03;;;;;;;3.8;1.5;;;;;;;23.85;20.5127;953.3006;;;;
2021/02/23 11:14:29;;;;;;;15.4;2.8;;;;;;;23.01;20.7334;953.2125;;;;
2021/02/23 11:16:54;;;;;;;6.6;2.7;;;;;;;23.47;20.9541;953.2126;;;;
2021/02/23 11:19:20;;;;;;;4.3;1.8;;;;;;;23.62;20.45508;953.1892;;;;
2021/02/23 11:21:45;;;;;;;3.5;1.9;;;;;;;23.53;20.31055;953.1928;;;;
2021/02/23 11:24:10;;;;;;;6.7;2.4;;;;;;;23.85;19.93652;953.163;;;;
2021/02/23 11:26:36;;;;;;;7.9;1.8;;;;;;;24.68;19.71484;953.0372;;;;
2021/02/23 11:29:01;;;;;;;5.6;2;;;;;;;24.45;19.37402;953.0304;;;;
2021/02/23 11:31:26;;;;;;;7.2;2.8;;;;;;;25.42;19.25098;952.9673;;;;
2021/02/23 11:33:52;;;;;;;2.6;1.7;;;;;;;25.29;18.56055;952.968;;;;
2021/02/23 11:36:18;;;;;;;9.6;3.3;;;;;;;24.99;18.78418;952.9728;;;;
2021/02/23 11:38:43;;;;;;;3.2;1.4;;;;;;;24.87;20.38379;952.9249;;;;
2021/02/23 11:41:09;;;;;;;10.4;2.4;;;;;;;26.21;19.3916;952.9309;;;;
2021/02/23 11:43:34;;;;;;;5.7;1.9;;;;;;;25.99;18.625;952.8681;;;;
2021/02/23 11:45:59;;;;;;;7.1;2.4;;;;;;;27.06;18.01758;952.8627;;;;
2021/02/23 11:48:24;;;;;;;8.5;2.3;;;;;;;27.68;16.55859;952.8411;;;;
2021/02/23 11:50:49;;;;;;;9.4;1.5;;;;;;;27.97;16.7002;952.7822;;;;
2021/02/23 11:53:14;;;;;;;10.9;2.5;;;;;;;28.15;15.1377;952.7583;;;;
2021/02/23 11:55:39;;;;;;;5.4;1.7;;;;;;;28.68;15.58398;952.7693;;;;
2021/02/23 11:58:05;;;;;;;4;1.6;;;;;;;29.53;15.43457;952.76;;;;
2021/02/23 12:00:30;;;;;;;8.8;2.2;;;;;;;29.55;14.70801;952.7684;;;;
2021/02/23 12:02:55;;;;;;;16.8;3;;;;;;;29.81;15.00293;952.7693;;;;
2021/02/23 12:05:21;;;;;;;3.9;1.8;;;;;;;29.94;15.36523;952.7697;;;;
2021/02/23 12:07:47;;;;;;;9.2;1.9;;;;;;;30.58;14.62207;952.6824;;;;
2021/02/23 12:10:13;;;;;;;6.6;2;;;;;;;30.83;14.09277;952.6616;;;;
2021/02/23 12:12:38;;;;;;;5.6;1.1;;;;;;;31.11;14.17285;952.6947;;;;
2021/02/23 12:15:04;;;;;;;3.5;1.5;;;;;;;31.15;14.40137;952.7085;;;;
2021/02/23 12:17:32;;;;;;;13.5;2.2;;;;;;;30.85;14.47559;952.6296;;;;
2021/02/23 12:19:57;;;;;;;2.5;1.5;;;;;;;30.86;15.28906;952.6373;;;;
2021/02/23 12:22:22;;;;;;;6.7;2;;;;;;;31.46;13.86035;952.655;;;;
2021/02/23 12:24:47;;;;;;;7.1;1.5;;;;;;;31.99;13.30176;952.6628;;;;
2021/02/23 12:27:12;;;;;;;2.5;1.1;;;;;;;31.22;13.76953;952.6316;;;;
2021/02/23 12:29:38;;;;;;;3.3;1.2;;;;;;;30.5;14.56055;952.6039;;;;
2021/02/23 12:32:04;;;;;;;4.1;1.7;;;;;;;31.3;13.46094;952.6525;;;;
2021/02/23 12:34:30;;;;;;;2.8;1.4;;;;;;;30.87;13.73535;952.6296;;;;
2021/02/23 12:36:55;;;;;;;8.8;2.2;;;;;;;31.25;13.55566;952.6606;;;;
2021/02/23 12:39:20;;;;;;;7;1.7;;;;;;;31;14.25391;952.5631;;;;
2021/02/23 12:41:47;;;;;;;5.1;1.8;;;;;;;30.88;14.12988;952.5821;;;;
2021/02/23 12:44:12;;;;;;;7;1.6;;;;;;;30.15;15.5752;952.5369;;;;
2021/02/23 12:46:39;;;;;;;3.7;1.5;;;;;;;29.83;14.68164;952.5441;;;;
2021/02/23 12:49:04;;;;;;;3.9;1.7;;;;;;;30.04;15.71484;952.5481;;;;
2021/02/23 12:51:30;;;;;;;4;1.7;;;;;;;29.67;15.66602;952.5789;;;;
2021/02/23 12:53:55;;;;;;;9.9;1.6;;;;;;;28.93;16.75977;952.5364;;;;
2021/02/23 12:56:21;;;;;;;17.5;2.1;;;;;;;29.01;16.66699;952.5184;;;;
2021/02/23 12:58:46;;;;;;;4.6;1.9;;;;;;;29.28;16.52246;952.4645;;;;
2021/02/23 13:01:12;;;;;;;4.5;1.7;;;;;;;29.38;17.02637;952.4594;;;;
2021/02/23 13:03:37;;;;;;;5.5;1.4;;;;;;;29.56;16.15137;952.4725;;;;
2021/02/23 13:06:03;;;;;;;2;1.3;;;;;;;30.68;15.33105;952.4663;;;;
2021/02/23 13:08:29;;;;;;;5;1.2;;;;;;;30.28;15.53223;952.3823;;;;
2021/02/23 13:10:55;;;;;;;4;1.9;;;;;;;30.85;14.72754;952.3859;;;;
2021/02/23 13:13:20;;;;;;;4.6;1.6;;;;;;;31.84;13.64453;952.4208;;;;
2021/02/23 13:15:45;;;;;;;4.5;1;;;;;;;32.22;13.57227;952.3244;;;;
2021/02/23 13:18:10;;;;;;;4.8;1.4;;;;;;;31.12;15.26172;952.4341;;;;
2021/02/23 13:20:35;;;;;;;1.6;0.8;;;;;;;29.84;16.04199;952.3574;;;;
2021/02/23 13:23:01;;;;;;;3.1;1.2;;;;;;;28.89;17.5918;952.399;;;;
2021/02/23 13:25:26;;;;;;;3.2;1.3;;;;;;;29.15;16.57715;952.4434;;;;
2021/02/23 13:27:52;;;;;;;2.1;1.4;;;;;;;28.7;16.57227;952.4439;;;;
2021/02/23 13:30:17;;;;;;;13.1;1.9;;;;;;;28.07;17.70117;952.4547;;;;
2021/02/23 13:32:43;;;;;;;5.8;1.2;;;;;;;27.34;18.36133;952.4073;;;;
2021/02/23 13:35:07;;;;;;;4.8;1.2;;;;;;;27.61;18.50293;952.3976;;;;
2021/02/23 13:37:32;;;;;;;6.6;1.8;;;;;;;28.49;17.18359;952.4073;;;;
2021/02/23 13:39:57;;;;;;;7.1;1.4;;;;;;;28.11;17.77441;952.4247;;;;
2021/02/23 13:42:23;;;;;;;16;2.2;;;;;;;28.35;17.78418;952.3664;;;;
2021/02/23 13:44:47;;;;;;;11;2.1;;;;;;;28.29;17.53223;952.3728;;;;
2021/02/23 13:47:13;;;;;;;1.9;1.1;;;;;;;27.84;18.61914;952.4216;;;;
2021/02/23 13:49:38;;;;;;;3.8;1.1;;;;;;;27.66;19.18066;952.4369;;;;
2021/02/23 13:52:04;;;;;;;5.4;1.4;;;;;;;27.73;18.57813;952.3525;;;;
2021/02/23 13:54:29;;;;;;;3.5;1.9;;;;;;;27.72;18.28125;952.3536;;;;
2021/02/23 13:56:56;;;;;;;10.4;2.5;;;;;;;27.28;18.93945;952.3824;;;;
2021/02/23 13:59:21;;;;;;;5.6;1.8;;;;;;;26.89;19.16016;952.4022;;;;
2021/02/23 14:01:48;;;;;;;5;1.5;;;;;;;27.02;19.39063;952.373;;;;
2021/02/23 14:04:13;;;;;;;2.3;0.9;;;;;;;27.22;18.96094;952.3621;;;;
2021/02/23 14:06:41;;;;;;;3.5;1.2;;;;;;;27.1;19.67871;952.3414;;;;
2021/02/23 14:09:06;;;;;;;3.5;1.4;;;;;;;27.3;19.26074;952.38;;;;
2021/02/23 14:11:38;;;;;;;2.4;1.1;;;;;;;26.98;20.10059;952.4836;;;;
2021/02/23 14:14:03;;;;;;;5.2;1.5;;;;;;;26.74;19.85254;952.4165;;;;
2021/02/23 14:16:28;;;;;;;3.4;1.5;;;;;;;25.71;21.82813;952.4608;;;;
2021/02/23 14:18:53;;;;;;;4.1;1;;;;;;;26.4;20.42969;952.4727;;;;
2021/02/23 14:21:18;;;;;;;5.8;1.6;;;;;;;26.77;19.80566;952.449;;;;
2021/02/23 14:23:43;;;;;;;2;0.9;;;;;;;26.41;19.69629;952.5083;;;;
2021/02/23 14:26:09;;;;;;;1.3;0.7;;;;;;;26.85;19.44238;952.51;;;;